createdAt,value
2023-11-24T00:01:40.128Z,100.00
2023-11-24T00:04:07.142Z,100.00
2023-11-24T00:06:33.887Z,100.00
2023-11-24T00:09:00.450Z,100.00
2023-11-24T00:11:27.756Z,100.00
2023-11-24T00:13:54.858Z,100.00
2023-11-24T00:16:22.795Z,100.00
2023-11-24T00:18:49.492Z,100.00
2023-11-24T00:23:42.711Z,100.00
2023-11-24T00:26:09.341Z,100.00
2023-11-24T00:28:40.398Z,100.00
2023-11-24T00:31:08.277Z,100.00
2023-11-24T00:33:38.754Z,100.00
2023-11-24T00:36:07.246Z,100.00
2023-11-24T00:38:33.811Z,100.00
2023-11-24T00:41:01.397Z,100.00
2023-11-24T00:43:28.008Z,100.00
2023-11-24T00:45:54.818Z,100.00
2023-11-24T00:50:49.225Z,100.00
2023-11-24T00:53:15.679Z,100.00
2023-11-24T00:55:42.177Z,100.00
2023-11-24T00:58:08.632Z,100.00
2023-11-24T01:00:35.083Z,100.00
2023-11-24T01:03:01.646Z,100.00
2023-11-24T01:05:30.775Z,100.00
2023-11-24T01:07:59.250Z,100.00
2023-11-24T01:10:25.848Z,100.00
2023-11-24T01:12:55.002Z,100.00
2023-11-24T01:15:21.953Z,100.00
2023-11-24T01:17:48.734Z,100.00
2023-11-24T01:20:17.700Z,100.00
2023-11-24T01:22:45.869Z,100.00
2023-11-24T01:25:13.042Z,100.00
2023-11-24T01:27:39.819Z,100.00
2023-11-24T01:30:10.744Z,100.00
2023-11-24T01:32:37.691Z,100.00
2023-11-24T01:35:05.276Z,100.00
2023-11-24T01:37:31.905Z,100.00
2023-11-24T01:39:58.445Z,100.00
2023-11-24T01:42:24.969Z,100.00
2023-11-24T01:44:51.432Z,100.00
2023-11-24T01:47:17.894Z,100.00
2023-11-24T01:49:46.859Z,100.00
2023-11-24T01:52:15.045Z,100.00
2023-11-24T01:54:42.211Z,100.00
2023-11-24T01:57:09.051Z,100.00
2023-11-24T01:59:36.511Z,100.00
2023-11-24T02:02:03.820Z,100.00
2023-11-24T02:04:31.038Z,100.00
2023-11-24T02:06:58.689Z,100.00
2023-11-24T02:09:25.674Z,100.00
2023-11-24T02:11:52.174Z,100.00
2023-11-24T02:14:18.716Z,100.00
2023-11-24T02:16:46.070Z,100.00
2023-11-24T02:19:12.848Z,100.00
2023-11-24T02:21:39.374Z,100.00
2023-11-24T02:24:07.137Z,100.00
2023-11-24T02:26:33.570Z,100.00
2023-11-24T02:29:00.061Z,100.00
2023-11-24T02:31:26.591Z,100.00
2023-11-24T02:33:54.010Z,100.00
2023-11-24T02:36:28.557Z,100.00
2023-11-24T02:38:55.202Z,100.00
2023-11-24T02:41:25.888Z,100.00
2023-11-24T02:43:52.464Z,100.00
2023-11-24T02:46:18.924Z,100.00
2023-11-24T02:48:45.695Z,100.00
2023-11-24T02:51:12.515Z,100.00
2023-11-24T02:53:39.182Z,100.00
2023-11-24T02:56:06.574Z,100.00
2023-11-24T02:58:34.786Z,100.00
2023-11-24T03:01:02.366Z,100.00
2023-11-24T03:03:29.697Z,100.00
2023-11-24T03:05:56.723Z,100.00
2023-11-24T03:08:24.719Z,100.00
2023-11-24T03:10:51.177Z,100.00
2023-11-24T03:13:17.663Z,100.00
2023-11-24T03:15:44.150Z,100.00
2023-11-24T03:18:10.653Z,100.00
2023-11-24T03:20:37.492Z,100.00
2023-11-24T03:23:04.423Z,100.00
2023-11-24T03:25:30.888Z,100.00
2023-11-24T03:27:57.574Z,100.00
2023-11-24T03:30:28.142Z,100.00
2023-11-24T03:32:54.584Z,100.00
2023-11-24T03:35:21.087Z,100.00
2023-11-24T03:37:47.785Z,100.00
2023-11-24T03:40:15.359Z,100.00
2023-11-24T03:42:41.931Z,100.00
2023-11-24T03:45:08.820Z,100.00
2023-11-24T03:47:35.338Z,100.00
2023-11-24T03:50:02.184Z,100.00
2023-11-24T03:52:28.664Z,100.00
2023-11-24T03:54:55.196Z,100.00
2023-11-24T03:57:21.932Z,100.00
2023-11-24T03:59:48.466Z,100.00
2023-11-24T04:02:15.008Z,100.00
2023-11-24T04:04:41.529Z,100.00
2023-11-24T04:07:08.024Z,100.00
2023-11-24T04:09:34.800Z,100.00
2023-11-24T04:12:01.364Z,100.00
2023-11-24T04:14:27.841Z,100.00
2023-11-24T04:16:54.286Z,100.00
2023-11-24T04:19:21.685Z,100.00
2023-11-24T04:21:48.177Z,100.00
2023-11-24T04:24:14.657Z,100.00
2023-11-24T04:26:41.182Z,100.00
2023-11-24T04:29:07.911Z,100.00
2023-11-24T04:31:34.394Z,100.00
2023-11-24T04:34:01.545Z,100.00
2023-11-24T04:36:29.487Z,100.00
2023-11-24T04:38:55.953Z,100.00
2023-11-24T04:41:22.429Z,100.00
2023-11-24T04:43:48.855Z,100.00
2023-11-24T04:46:15.422Z,100.00
2023-11-24T04:48:43.317Z,100.00
2023-11-24T04:51:09.862Z,100.00
2023-11-24T04:53:37.864Z,100.00
2023-11-24T04:56:06.707Z,100.00
2023-11-24T04:58:33.660Z,100.00
2023-11-24T05:01:00.224Z,100.00
2023-11-24T05:03:26.808Z,100.00
2023-11-24T05:05:53.399Z,100.00
2023-11-24T05:08:21.188Z,100.00
2023-11-24T05:10:47.696Z,100.00
2023-11-24T05:13:14.754Z,100.00
2023-11-24T05:15:41.221Z,100.00
2023-11-24T05:18:08.674Z,100.00
2023-11-24T05:20:35.371Z,100.00
2023-11-24T05:23:01.795Z,100.00
2023-11-24T05:25:28.630Z,100.00
2023-11-24T05:27:55.126Z,100.00
2023-11-24T05:30:21.624Z,100.00
2023-11-24T05:32:48.181Z,100.00
2023-11-24T05:35:14.701Z,100.00
2023-11-24T05:37:41.177Z,100.00
2023-11-24T05:40:09.810Z,100.00
2023-11-24T05:42:36.358Z,100.00
2023-11-24T05:45:03.357Z,100.00
2023-11-24T05:47:30.595Z,100.00
2023-11-24T05:49:57.413Z,100.00
2023-11-24T05:52:24.760Z,100.00
2023-11-24T05:54:51.388Z,100.00
2023-11-24T05:57:17.859Z,100.00
2023-11-24T05:59:44.412Z,100.00
2023-11-24T06:02:11.016Z,100.00
2023-11-24T06:04:37.672Z,100.00
2023-11-24T06:07:05.483Z,100.00
2023-11-24T06:09:34.082Z,100.00
2023-11-24T06:12:00.609Z,100.00
2023-11-24T06:14:27.096Z,100.00
2023-11-24T06:16:53.762Z,100.00
2023-11-24T06:19:20.321Z,100.00
2023-11-24T06:21:46.831Z,100.00
2023-11-24T06:24:14.699Z,100.00
2023-11-24T06:26:41.222Z,100.00
2023-11-24T06:29:07.681Z,100.00
2023-11-24T06:31:34.173Z,100.00
2023-11-24T06:34:00.681Z,100.00
2023-11-24T06:36:27.268Z,100.00
2023-11-24T06:38:53.795Z,100.00
2023-11-24T06:41:20.502Z,100.00
2023-11-24T06:43:47.062Z,100.00
2023-11-24T06:46:13.743Z,100.00
2023-11-24T06:48:40.480Z,100.00
2023-11-24T06:51:08.244Z,100.00
2023-11-24T06:53:35.781Z,100.00
2023-11-24T06:56:02.247Z,100.00
2023-11-24T06:58:28.860Z,100.00
2023-11-24T07:00:55.677Z,100.00
2023-11-24T07:03:22.243Z,100.00
2023-11-24T07:05:48.787Z,100.00
2023-11-24T07:08:17.859Z,100.00
2023-11-24T07:10:45.246Z,100.00
2023-11-24T07:13:11.925Z,100.00
2023-11-24T07:15:39.303Z,100.00
2023-11-24T07:18:05.904Z,100.00
2023-11-24T07:20:32.380Z,100.00
2023-11-24T07:22:59.367Z,100.00
2023-11-24T07:25:27.231Z,100.00
2023-11-24T07:27:53.718Z,100.00
2023-11-24T07:30:20.275Z,100.00
2023-11-24T07:32:46.903Z,100.00
2023-11-24T07:35:15.197Z,100.00
2023-11-24T07:37:41.915Z,100.00
2023-11-24T07:40:14.988Z,100.00
2023-11-24T07:42:44.627Z,100.00
2023-11-24T07:45:12.005Z,100.00
2023-11-24T07:47:38.564Z,100.00
2023-11-24T07:50:05.722Z,100.00
2023-11-24T07:52:32.257Z,100.00
2023-11-24T07:54:58.730Z,100.00
2023-11-24T07:57:26.313Z,100.00
2023-11-24T07:59:53.686Z,100.00
2023-11-24T08:02:20.231Z,100.00
2023-11-24T08:04:46.909Z,100.00
2023-11-24T08:07:13.738Z,100.00
2023-11-24T08:09:40.260Z,100.00
2023-11-24T08:12:11.645Z,100.00
2023-11-24T08:14:40.541Z,100.00
2023-11-24T08:17:07.198Z,100.00
2023-11-24T08:19:33.752Z,100.00
2023-11-24T08:22:00.270Z,100.00
2023-11-24T08:24:27.172Z,100.00
2023-11-24T08:26:53.659Z,100.00
2023-11-24T08:29:20.140Z,100.00
2023-11-24T08:31:49.297Z,100.00
2023-11-24T08:34:17.082Z,100.00
2023-11-24T08:36:43.678Z,100.00
2023-11-24T08:39:14.378Z,100.00
2023-11-24T08:41:45.563Z,100.00
2023-11-24T08:44:13.323Z,100.00
2023-11-24T08:46:40.288Z,100.00
2023-11-24T08:49:10.125Z,100.00
2023-11-24T08:51:36.755Z,100.00
2023-11-24T08:54:04.806Z,100.00
2023-11-24T08:56:32.979Z,100.00
2023-11-24T08:58:59.566Z,100.00
2023-11-24T09:01:26.090Z,100.00
2023-11-24T09:03:53.474Z,100.00
2023-11-24T09:06:30.072Z,100.00
2023-11-24T09:08:59.669Z,100.00
2023-11-24T09:11:29.049Z,100.00
2023-11-24T09:13:55.647Z,100.00
2023-11-24T09:16:22.870Z,100.00
2023-11-24T09:18:49.763Z,100.00
2023-11-24T09:21:18.794Z,100.00
2023-11-24T09:23:46.054Z,100.00
2023-11-24T09:26:13.660Z,100.00
2023-11-24T09:28:40.609Z,99.83
2023-11-24T09:31:10.303Z,99.15
2023-11-24T09:33:40.270Z,99.92
2023-11-24T09:36:07.839Z,99.60
2023-11-24T09:38:37.101Z,99.51
2023-11-24T09:41:12.666Z,97.82
2023-11-24T09:43:39.816Z,97.17
2023-11-24T09:46:07.985Z,96.57
2023-11-24T09:48:35.647Z,96.62
2023-11-24T09:51:08.327Z,95.71
2023-11-24T09:53:35.123Z,96.78
2023-11-24T09:56:04.811Z,94.71
2023-11-24T09:58:34.560Z,96.59
2023-11-24T10:01:15.301Z,95.95
2023-11-24T10:03:46.960Z,96.99
2023-11-24T10:06:14.380Z,96.74
2023-11-24T10:08:41.467Z,94.37
2023-11-24T10:11:15.926Z,94.36
2023-11-24T10:13:49.371Z,93.46
2023-11-24T10:16:17.545Z,94.56
2023-11-24T10:18:44.477Z,93.50
2023-11-24T10:21:23.078Z,92.62
2023-11-24T10:23:59.411Z,90.82
2023-11-24T10:26:26.448Z,89.74
2023-11-24T10:28:53.636Z,89.39
2023-11-24T10:31:21.049Z,88.37
2023-11-24T10:33:48.176Z,91.24
2023-11-24T10:36:17.681Z,91.40
2023-11-24T10:38:45.264Z,91.32
2023-11-24T10:41:24.627Z,92.84
2023-11-24T10:43:51.825Z,90.13
2023-11-24T10:46:22.380Z,91.03
2023-11-24T10:49:02.128Z,90.40
2023-11-24T10:51:46.273Z,88.60
2023-11-24T10:54:35.289Z,87.30
2023-11-24T10:57:03.624Z,87.87
2023-11-24T10:59:35.387Z,87.06
2023-11-24T11:02:08.061Z,87.56
2023-11-24T11:04:36.650Z,89.24
2023-11-24T11:07:28.642Z,88.37
2023-11-24T11:10:00.153Z,87.43
2023-11-24T11:12:44.373Z,87.00
2023-11-24T11:15:11.660Z,86.14
2023-11-24T11:17:39.487Z,85.23
2023-11-24T11:20:16.298Z,84.81
2023-11-24T11:22:45.589Z,84.15
2023-11-24T11:25:21.329Z,83.83
2023-11-24T11:27:48.307Z,82.36
2023-11-24T11:30:27.348Z,84.25
2023-11-24T11:33:25.805Z,83.79
2023-11-24T11:36:11.121Z,84.24
2023-11-24T11:38:44.477Z,84.88
2023-11-24T11:41:11.206Z,85.25
2023-11-24T11:43:54.274Z,86.76
2023-11-24T11:46:20.897Z,85.61
2023-11-24T11:48:47.707Z,85.45
2023-11-24T11:51:17.842Z,85.19
2023-11-24T11:53:44.338Z,85.13
2023-11-24T11:56:13.181Z,85.68
2023-11-24T11:58:42.305Z,84.82
2023-11-24T12:01:09.817Z,86.73
2023-11-24T12:03:36.487Z,86.57
2023-11-24T12:06:07.067Z,86.34
2023-11-24T12:08:34.474Z,86.55
2023-11-24T12:11:01.101Z,87.01
2023-11-24T12:13:27.671Z,89.31
2023-11-24T12:15:54.778Z,91.06
2023-11-24T12:18:21.481Z,92.88
2023-11-24T12:20:50.930Z,92.13
2023-11-24T12:23:19.070Z,92.14
2023-11-24T12:25:45.743Z,92.50
2023-11-24T12:28:14.786Z,90.85
2023-11-24T12:30:43.425Z,91.93
2023-11-24T12:33:16.697Z,91.39
2023-11-24T12:35:48.054Z,90.71
2023-11-24T12:38:15.879Z,90.58
2023-11-24T12:40:44.453Z,91.87
2023-11-24T12:43:19.081Z,91.91
2023-11-24T12:45:49.263Z,90.71
2023-11-24T12:48:25.175Z,92.45
2023-11-24T12:50:57.556Z,90.47
2023-11-24T12:53:24.428Z,91.62
2023-11-24T12:55:50.928Z,96.85
2023-11-24T12:58:17.431Z,99.07
2023-11-24T13:00:43.964Z,100.00
2023-11-24T13:03:11.376Z,100.00
2023-11-24T13:05:40.641Z,100.00
2023-11-24T13:08:07.781Z,100.00
2023-11-24T13:10:35.556Z,100.00
2023-11-24T13:13:02.893Z,100.00
2023-11-24T13:15:29.745Z,100.00
2023-11-24T13:17:59.648Z,100.00
2023-11-24T13:20:29.871Z,100.00
2023-11-24T13:22:59.703Z,100.00
2023-11-24T13:25:30.084Z,100.00
2023-11-24T13:27:56.925Z,100.00
2023-11-24T13:30:25.135Z,100.00
2023-11-24T13:32:52.155Z,100.00
2023-11-24T13:35:20.633Z,100.00
2023-11-24T13:37:51.286Z,100.00
2023-11-24T13:40:21.610Z,100.00
2023-11-24T13:42:48.717Z,100.00
2023-11-24T13:45:18.917Z,100.00
2023-11-24T13:47:45.640Z,100.00
2023-11-24T13:50:12.926Z,100.00
2023-11-24T13:52:39.661Z,100.00
2023-11-24T13:55:07.280Z,100.00
2023-11-24T13:57:34.147Z,100.00
2023-11-24T14:00:00.667Z,100.00
2023-11-24T14:02:27.235Z,100.00
2023-11-24T14:04:55.558Z,100.00
2023-11-24T14:07:22.337Z,100.00
2023-11-24T14:09:49.927Z,100.00
2023-11-24T14:12:18.156Z,100.00
2023-11-24T14:14:44.759Z,100.00
2023-11-24T14:17:13.124Z,100.00
2023-11-24T14:19:39.924Z,100.00
2023-11-24T14:22:07.185Z,100.00
2023-11-24T14:24:34.045Z,100.00
2023-11-24T14:27:00.813Z,100.00
2023-11-24T14:29:29.294Z,100.00
2023-11-24T14:31:56.136Z,100.00
2023-11-24T14:34:22.730Z,100.00
2023-11-24T14:36:49.875Z,100.00
2023-11-24T14:39:32.891Z,100.00
2023-11-24T14:42:00.170Z,100.00
2023-11-24T14:44:27.065Z,100.00
2023-11-24T14:46:53.884Z,100.00
2023-11-24T14:49:21.041Z,100.00
2023-11-24T14:51:48.842Z,100.00
2023-11-24T14:54:17.047Z,100.00
2023-11-24T14:56:44.589Z,100.00
2023-11-24T14:59:11.992Z,100.00
2023-11-24T15:01:39.907Z,100.00
2023-11-24T15:04:17.874Z,100.00
2023-11-24T15:06:51.239Z,100.00
2023-11-24T15:09:18.008Z,100.00
2023-11-24T15:11:45.373Z,100.00
2023-11-24T15:14:15.530Z,100.00
2023-11-24T15:16:58.180Z,100.00
2023-11-24T15:19:32.254Z,100.00
2023-11-24T15:22:04.047Z,100.00
2023-11-24T15:24:33.186Z,100.00
2023-11-24T15:27:01.484Z,100.00
2023-11-24T15:29:28.075Z,100.00
2023-11-24T15:31:54.709Z,100.00
2023-11-24T15:34:22.851Z,100.00
2023-11-24T15:36:49.655Z,100.00
2023-11-24T15:39:35.867Z,100.00
2023-11-24T15:42:03.573Z,100.00
2023-11-24T15:44:34.060Z,100.00
2023-11-24T15:47:03.446Z,100.00
2023-11-24T15:49:31.151Z,100.00
2023-11-24T15:51:57.656Z,100.00
2023-11-24T15:54:27.582Z,98.87
2023-11-24T15:56:55.312Z,98.91
2023-11-24T15:59:25.086Z,98.78
2023-11-24T16:01:53.117Z,98.61
2023-11-24T16:04:22.332Z,99.00
2023-11-24T16:06:55.843Z,98.19
2023-11-24T16:09:25.143Z,97.38
2023-11-24T16:12:16.465Z,97.74
2023-11-24T16:14:44.604Z,98.05
2023-11-24T16:17:11.272Z,98.22
2023-11-24T16:19:37.990Z,98.45
2023-11-24T16:22:06.164Z,97.24
2023-11-24T16:24:33.114Z,97.69
2023-11-24T16:27:00.148Z,97.02
2023-11-24T16:29:26.689Z,99.27
2023-11-24T16:31:55.199Z,98.67
2023-11-24T16:34:23.850Z,98.20
2023-11-24T16:36:50.680Z,98.44
2023-11-24T16:39:23.530Z,98.47
2023-11-24T16:41:53.674Z,98.42
2023-11-24T16:44:20.172Z,99.07
2023-11-24T16:46:58.852Z,100.00
2023-11-24T16:49:25.671Z,99.40
2023-11-24T16:51:52.239Z,99.54
2023-11-24T16:54:18.676Z,98.96
2023-11-24T16:56:45.196Z,99.77
2023-11-24T16:59:12.625Z,99.10
2023-11-24T17:01:39.521Z,100.00
2023-11-24T17:04:06.084Z,99.36
2023-11-24T17:06:32.536Z,99.54
2023-11-24T17:08:59.837Z,99.86
2023-11-24T17:11:26.390Z,100.00
2023-11-24T17:13:53.368Z,100.00
2023-11-24T17:16:21.712Z,100.00
2023-11-24T17:18:48.332Z,100.00
2023-11-24T17:21:14.775Z,99.95
2023-11-24T17:23:41.612Z,100.00
2023-11-24T17:26:11.092Z,100.00
2023-11-24T17:28:38.445Z,100.00
2023-11-24T17:31:09.101Z,100.00
2023-11-24T17:33:40.409Z,100.00
2023-11-24T17:36:08.991Z,100.00
2023-11-24T17:38:35.525Z,100.00
2023-11-24T17:41:02.877Z,100.00
2023-11-24T17:43:30.228Z,100.00
2023-11-24T17:45:57.466Z,100.00
2023-11-24T17:48:24.924Z,100.00
2023-11-24T17:50:52.238Z,100.00
2023-11-24T17:53:19.579Z,100.00
2023-11-24T17:55:46.076Z,100.00
2023-11-24T17:58:12.591Z,100.00
2023-11-24T18:00:40.994Z,100.00
2023-11-24T18:03:08.625Z,100.00
2023-11-24T18:05:37.095Z,100.00
2023-11-24T18:08:04.876Z,100.00
2023-11-24T18:10:31.862Z,100.00
2023-11-24T18:12:59.251Z,100.00
2023-11-24T18:15:29.201Z,100.00
2023-11-24T18:17:56.353Z,100.00
2023-11-24T18:20:23.091Z,100.00
2023-11-24T18:22:49.677Z,100.00
2023-11-24T18:25:16.217Z,100.00
2023-11-24T18:27:43.857Z,100.00
2023-11-24T18:30:11.107Z,100.00
2023-11-24T18:32:37.815Z,100.00
2023-11-24T18:35:04.725Z,100.00
2023-11-24T18:37:31.656Z,100.00
2023-11-24T18:40:00.988Z,100.00
2023-11-24T18:42:30.373Z,100.00
2023-11-24T18:44:56.879Z,100.00
2023-11-24T18:47:27.245Z,100.00
2023-11-24T18:49:54.253Z,100.00
2023-11-24T18:52:21.644Z,100.00
2023-11-24T18:54:50.940Z,100.00
2023-11-24T18:57:17.498Z,100.00
2023-11-24T18:59:43.928Z,100.00
2023-11-24T19:02:10.504Z,100.00
2023-11-24T19:04:37.448Z,100.00
2023-11-24T19:07:04.158Z,100.00
2023-11-24T19:09:30.825Z,100.00
2023-11-24T19:11:57.342Z,100.00
2023-11-24T19:14:23.874Z,100.00
2023-11-24T19:16:51.334Z,100.00
2023-11-24T19:19:18.438Z,100.00
2023-11-24T19:21:45.304Z,100.00
2023-11-24T19:24:11.861Z,100.00
2023-11-24T19:26:38.640Z,100.00
2023-11-24T19:29:10.965Z,100.00
2023-11-24T19:31:39.385Z,100.00
2023-11-24T19:34:06.978Z,100.00
2023-11-24T19:36:33.649Z,100.00
2023-11-24T19:39:01.323Z,100.00
2023-11-24T19:41:27.748Z,100.00
2023-11-24T19:43:54.200Z,100.00
2023-11-24T19:46:22.302Z,100.00
2023-11-24T19:48:51.618Z,100.00
2023-11-24T19:51:18.658Z,100.00
2023-11-24T19:53:47.423Z,100.00
2023-11-24T19:56:15.668Z,100.00
2023-11-24T19:58:43.551Z,100.00
2023-11-24T20:01:10.114Z,99.98
2023-11-24T20:03:39.102Z,100.00
2023-11-24T20:06:07.579Z,100.00
2023-11-24T20:08:34.368Z,99.99
2023-11-24T20:11:00.906Z,99.86
2023-11-24T20:13:27.380Z,100.00
2023-11-24T20:15:54.066Z,99.95
2023-11-24T20:18:20.619Z,99.83
2023-11-24T20:20:47.867Z,98.99
2023-11-24T20:23:14.780Z,98.88
2023-11-24T20:25:41.274Z,98.99
2023-11-24T20:28:10.326Z,99.60
2023-11-24T20:30:36.889Z,99.04
2023-11-24T20:33:03.328Z,99.05
2023-11-24T20:35:30.485Z,99.01
2023-11-24T20:37:57.221Z,99.93
2023-11-24T20:40:25.654Z,100.00
2023-11-24T20:42:52.202Z,99.71
2023-11-24T20:45:18.670Z,100.00
2023-11-24T20:47:45.131Z,99.28
2023-11-24T20:50:11.617Z,98.99
2023-11-24T20:52:38.166Z,99.37
2023-11-24T20:55:05.375Z,99.83
2023-11-24T20:57:31.893Z,100.00
2023-11-24T20:59:58.376Z,100.00
2023-11-24T21:02:24.937Z,99.85
2023-11-24T21:04:51.612Z,99.88
2023-11-24T21:07:20.175Z,100.00
2023-11-24T21:09:46.977Z,99.93
2023-11-24T21:12:13.540Z,100.00
2023-11-24T21:14:40.087Z,100.00
2023-11-24T21:17:06.618Z,100.00
2023-11-24T21:19:33.134Z,100.00
2023-11-24T21:21:59.698Z,100.00
2023-11-24T21:24:26.258Z,100.00
2023-11-24T21:26:52.735Z,100.00
2023-11-24T21:29:19.187Z,100.00
2023-11-24T21:31:45.663Z,100.00
2023-11-24T21:34:12.856Z,100.00
2023-11-24T21:36:39.582Z,100.00
2023-11-24T21:39:06.296Z,100.00
2023-11-24T21:41:34.641Z,100.00
2023-11-24T21:44:01.450Z,100.00
2023-11-24T21:46:28.198Z,100.00
2023-11-24T21:48:54.704Z,100.00
2023-11-24T21:51:21.210Z,100.00
2023-11-24T21:53:47.702Z,100.00
2023-11-24T21:56:14.131Z,100.00
2023-11-24T21:58:40.829Z,100.00
2023-11-24T22:01:07.460Z,100.00
2023-11-24T22:03:34.055Z,100.00
2023-11-24T22:06:01.033Z,100.00
2023-11-24T22:08:27.466Z,100.00
2023-11-24T22:10:54.115Z,100.00
2023-11-24T22:13:21.011Z,100.00
2023-11-24T22:15:50.026Z,100.00
2023-11-24T22:18:17.358Z,100.00
2023-11-24T22:20:46.801Z,100.00
2023-11-24T22:23:13.648Z,100.00
2023-11-24T22:25:40.234Z,100.00
2023-11-24T22:28:06.963Z,100.00
2023-11-24T22:30:33.594Z,100.00
2023-11-24T22:33:00.137Z,100.00
2023-11-24T22:35:26.723Z,100.00
2023-11-24T22:37:53.193Z,100.00
2023-11-24T22:40:19.769Z,100.00
2023-11-24T22:42:46.528Z,100.00
2023-11-24T22:45:13.149Z,100.00
2023-11-24T22:47:42.625Z,100.00
2023-11-24T22:50:11.243Z,100.00
2023-11-24T22:52:38.547Z,100.00
2023-11-24T22:55:06.716Z,100.00
2023-11-24T22:57:33.904Z,100.00
2023-11-24T23:00:00.486Z,100.00
2023-11-24T23:02:27.495Z,100.00
2023-11-24T23:04:54.010Z,100.00
2023-11-24T23:07:25.094Z,100.00
2023-11-24T23:09:53.669Z,100.00
2023-11-24T23:12:20.386Z,100.00
2023-11-24T23:14:47.182Z,100.00
2023-11-24T23:17:13.718Z,100.00
2023-11-24T23:19:41.665Z,100.00
2023-11-24T23:22:09.770Z,100.00
2023-11-24T23:24:36.867Z,100.00
2023-11-24T23:27:07.252Z,100.00
2023-11-24T23:29:34.610Z,100.00
2023-11-24T23:32:01.173Z,100.00
2023-11-24T23:34:27.728Z,100.00
2023-11-24T23:36:54.198Z,100.00
2023-11-24T23:39:20.753Z,100.00
2023-11-24T23:41:47.196Z,100.00
2023-11-24T23:44:15.623Z,100.00
2023-11-24T23:46:42.769Z,100.00
2023-11-24T23:49:09.673Z,100.00
2023-11-24T23:51:36.255Z,100.00
2023-11-24T23:54:03.983Z,100.00
2023-11-24T23:56:30.535Z,100.00
2023-11-24T23:58:56.962Z,100.00
